Bugle, United Kingdom
Current Conditions -  °F | °C
As of 9:20 PM on Monday 22 Dec 2014 (Local Time) from EGHQ Reporting Station
Broken Clouds Broken Clouds  
Wind Chill: 50°   Ceiling: 2500
Heat Index: 50°   Visibility: 6mi
Dew Point: 48°   Wind: 21mph
Humidity: 94%   Direction: 240°WSW
Pressure: 30.18"   Gusts: NA
Location:  50.4°N, 4.79°W
Report Text: EGHQ 222120Z 24018KT 9999 SCT011 BKN025 10/09 Q1022
Loading
Personal Weather Stations






























Interactive Weather Map New forecast layout! Learn more

10-Day Weather Forecast

Advertisements
Track Severe Weather on mobile